Wind From: 10-12-2017 19:04 Until: 11-12-2017 16:00 warning for: Wind Level: Orange info button

Power and phone distribution networks may be disrupted for relatively long periods., Roofs and chimneys can be damaged. , Tree branches may break. , Vehicles can be deported. , Traffic may be disrupted, particularly on secondary roads in forest areas. Limit your trips. , Limit your speed in highway driving, especially if you drive a vehicle or hitch sensitive to wind. , Do not go for walks in forests or along the coast., In town, be vigilant against possible falling objects., Do not work on roofs and do not touch any electrical line fallen on the ground., Store or secure sensitive objects to wind or likely to be damaged., Always install power generators outside buildings. 


Meteo18 Weather Cam more information Meteo18 Weather Cam


Thunder radar more information blitzortung!


Rain radar more information rain snow radar


Visit our other weather sites:

Template documentation
and downloads

And another site



Weather Underground History page Text

Daily Summary for February 11, 2017 Units:  Both    English   Metric
« Previous Day
Next Day »
Daily Weekly Monthly Yearly Custom
  High: Low: Average:
Temperature: 37 °F /  2.8 °C 28.8 °F /  -1.8 °C 32.4 °F /  0.2 °C
Dew Point: 32.5 °F /  0.3 °C 26.1 °F /  -3.3 °C 28.6 °F /  -1.9 °C
Humidity: 93 % 74 % 86 %
Wind Speed: 11 mph /  17.7 km/h - 2.5 mph /  4.1 km/h
Wind Gust: 13 mph /  20.9 km/h - -
Wind:- - South
Pressure: 30.1 in /  1020.2 hPa 30.1 in /  1018.2 hPa -
Precipitation: 0 in /  0.0 mm    
Historical Graphs
 
 
Tabular Data for February 11, 2017
Time Temperature Dew Point Pressure Wind Wind Speed Wind Gust Humidity Rainfall Rate (Hourly)
00:02 34.9 °F /  1.6 °C 32.5 °F /  0.3 °C 30.1 in /  1018.8 hPa NNW 4 mph /  6.4 km/h 9 mph /  14.5 km/h 91 % 0 in /  0.0 mm
00:12 34.7 °F /  1.5 °C 32.4 °F /  0.2 °C 30.1 in /  1018.8 hPa North 3 mph /  4.8 km/h 9 mph /  14.5 km/h 91 % 0 in /  0.0 mm
00:17 34.5 °F /  1.4 °C 32.2 °F /  0.1 °C 30.1 in /  1018.8 hPa NW 3 mph /  4.8 km/h 9 mph /  14.5 km/h 91 % 0 in /  0.0 mm
00:22 34.5 °F /  1.4 °C 32.2 °F /  0.1 °C 30.1 in /  1019.2 hPa NNE 3 mph /  4.8 km/h 9 mph /  14.5 km/h 91 % 0 in /  0.0 mm
00:27 34.5 °F /  1.4 °C 32.2 °F /  0.1 °C 30.1 in /  1019.2 hPa NNW 5 mph /  8.0 km/h 9 mph /  14.5 km/h 91 % 0 in /  0.0 mm
00:32 34.5 °F /  1.4 °C 32.2 °F /  0.1 °C 30.1 in /  1019.2 hPa North 6 mph /  9.7 km/h 7 mph /  11.3 km/h 91 % 0 in /  0.0 mm
00:37 34.3 °F /  1.3 °C 32 °F /  0.0 °C 30.1 in /  1019.2 hPa North 5 mph /  8.0 km/h 8 mph /  12.9 km/h 91 % 0 in /  0.0 mm
00:42 34.5 °F /  1.4 °C 32.2 °F /  0.1 °C 30.1 in /  1019.2 hPa North 7 mph /  11.3 km/h 9 mph /  14.5 km/h 91 % 0 in /  0.0 mm
00:47 34.5 °F /  1.4 °C 32.2 °F /  0.1 °C 30.1 in /  1019.2 hPa NE 2 mph /  3.2 km/h 10 mph /  16.1 km/h 91 % 0 in /  0.0 mm
00:57 34.3 °F /  1.3 °C 32 °F /  0.0 °C 30.1 in /  1019.2 hPa NW 5 mph /  8.0 km/h 12 mph /  19.3 km/h 91 % 0 in /  0.0 mm
01:02 34.3 °F /  1.3 °C 32 °F /  0.0 °C 30.1 in /  1019.2 hPa North 6 mph /  9.7 km/h 12 mph /  19.3 km/h 91 % 0 in /  0.0 mm
01:07 34.3 °F /  1.3 °C 32 °F /  0.0 °C 30.1 in /  1019.2 hPa NNE 4 mph /  6.4 km/h 12 mph /  19.3 km/h 91 % 0 in /  0.0 mm
01:12 34.3 °F /  1.3 °C 32 °F /  0.0 °C 30.1 in /  1019.2 hPa NNW 7 mph /  11.3 km/h 11 mph /  17.7 km/h 91 % 0 in /  0.0 mm
01:17 34.2 °F /  1.2 °C 32 °F /  0.0 °C 30.1 in /  1019.2 hPa NNW 4 mph /  6.4 km/h 10 mph /  16.1 km/h 92 % 0 in /  0.0 mm
01:22 34.2 °F /  1.2 °C 32 °F /  0.0 °C 30.1 in /  1019.2 hPa NNE 8 mph /  12.9 km/h 10 mph /  16.1 km/h 92 % 0 in /  0.0 mm
01:27 34 °F /  1.1 °C 31.8 °F /  -0.1 °C 30.1 in /  1019.2 hPa NNE 4 mph /  6.4 km/h 11 mph /  17.7 km/h 92 % 0 in /  0.0 mm
01:32 34 °F /  1.1 °C 31.8 °F /  -0.1 °C 30.1 in /  1019.2 hPa North 4 mph /  6.4 km/h 11 mph /  17.7 km/h 92 % 0 in /  0.0 mm
01:42 34 °F /  1.1 °C 31.8 °F /  -0.1 °C 30.1 in /  1019.2 hPa North 1 mph /  1.6 km/h 10 mph /  16.1 km/h 92 % 0 in /  0.0 mm
01:47 34 °F /  1.1 °C 31.8 °F /  -0.1 °C 30.1 in /  1019.2 hPa NNE 3 mph /  4.8 km/h 9 mph /  14.5 km/h 92 % 0 in /  0.0 mm
01:52 34 °F /  1.1 °C 31.8 °F /  -0.1 °C 30.1 in /  1019.2 hPa NW 5 mph /  8.0 km/h 10 mph /  16.1 km/h 92 % 0 in /  0.0 mm
01:57 33.8 °F /  1.0 °C 31.6 °F /  -0.2 °C 30.1 in /  1019.2 hPa NNW 3 mph /  4.8 km/h 10 mph /  16.1 km/h 92 % 0 in /  0.0 mm
02:02 33.8 °F /  1.0 °C 31.6 °F /  -0.2 °C 30.1 in /  1019.2 hPa NNW 2 mph /  3.2 km/h 10 mph /  16.1 km/h 92 % 0 in /  0.0 mm
02:07 33.8 °F /  1.0 °C 31.6 °F /  -0.2 °C 30.1 in /  1019.2 hPa NNW 3 mph /  4.8 km/h 9 mph /  14.5 km/h 92 % 0 in /  0.0 mm
02:17 33.6 °F /  0.9 °C 31.5 °F /  -0.3 °C 30.1 in /  1019.2 hPa North 10 mph /  16.1 km/h 10 mph /  16.1 km/h 92 % 0 in /  0.0 mm
02:22 33.6 °F /  0.9 °C 31.5 °F /  -0.3 °C 30.1 in /  1019.2 hPa NW 3 mph /  4.8 km/h 11 mph /  17.7 km/h 92 % 0 in /  0.0 mm
02:32 33.6 °F /  0.9 °C 31.5 °F /  -0.3 °C 30.1 in /  1019.2 hPa NNW 2 mph /  3.2 km/h 11 mph /  17.7 km/h 92 % 0 in /  0.0 mm
02:42 33.6 °F /  0.9 °C 31.5 °F /  -0.3 °C 30.1 in /  1019.2 hPa NNE 6 mph /  9.7 km/h 8 mph /  12.9 km/h 92 % 0 in /  0.0 mm
02:47 33.6 °F /  0.9 °C 31.5 °F /  -0.3 °C 30.1 in /  1019.2 hPa North 4 mph /  6.4 km/h 9 mph /  14.5 km/h 92 % 0 in /  0.0 mm
02:57 33.4 °F /  0.8 °C 31.3 °F /  -0.4 °C 30.1 in /  1019.2 hPa North 7 mph /  11.3 km/h 12 mph /  19.3 km/h 92 % 0 in /  0.0 mm
03:02 33.4 °F /  0.8 °C 31.3 °F /  -0.4 °C 30.1 in /  1019.2 hPa NNE 2 mph /  3.2 km/h 12 mph /  19.3 km/h 92 % 0 in /  0.0 mm
03:12 33.3 °F /  0.7 °C 31.1 °F /  -0.5 °C 30.1 in /  1019.2 hPa NNW 5 mph /  8.0 km/h 9 mph /  14.5 km/h 92 % 0 in /  0.0 mm
03:17 33.3 °F /  0.7 °C 31.1 °F /  -0.5 °C 30.1 in /  1018.8 hPa NNW 2 mph /  3.2 km/h 6 mph /  9.7 km/h 92 % 0 in /  0.0 mm
03:22 33.3 °F /  0.7 °C 31.1 °F /  -0.5 °C 30.1 in /  1018.8 hPa NNW 1 mph /  1.6 km/h 6 mph /  9.7 km/h 92 % 0 in /  0.0 mm
03:27 33.3 °F /  0.7 °C 31.1 °F /  -0.5 °C 30.1 in /  1018.8 hPa Calm   6 mph /  9.7 km/h 92 % 0 in /  0.0 mm
03:32 33.1 °F /  0.6 °C 31.1 °F /  -0.5 °C 30.1 in /  1018.8 hPa ENE 1 mph /  1.6 km/h 6 mph /  9.7 km/h 92 % 0 in /  0.0 mm
03:37 33.1 °F /  0.6 °C 31.1 °F /  -0.5 °C 30.1 in /  1018.8 hPa NNW 1 mph /  1.6 km/h 8 mph /  12.9 km/h 92 % 0 in /  0.0 mm
03:42 33.1 °F /  0.6 °C 31.1 °F /  -0.5 °C 30.1 in /  1018.8 hPa NNW 1 mph /  1.6 km/h 8 mph /  12.9 km/h 92 % 0 in /  0.0 mm
03:47 32.9 °F /  0.5 °C 30.9 °F /  -0.6 °C 30.1 in /  1018.8 hPa NNW 4 mph /  6.4 km/h 7 mph /  11.3 km/h 92 % 0 in /  0.0 mm
03:52 32.9 °F /  0.5 °C 30.9 °F /  -0.6 °C 30.1 in /  1018.8 hPa NNE 7 mph /  11.3 km/h 8 mph /  12.9 km/h 92 % 0 in /  0.0 mm
03:57 32.7 °F /  0.4 °C 30.7 °F /  -0.7 °C 30.1 in /  1018.8 hPa North 1 mph /  1.6 km/h 10 mph /  16.1 km/h 92 % 0 in /  0.0 mm
04:02 32.7 °F /  0.4 °C 30.7 °F /  -0.7 °C 30.1 in /  1018.8 hPa NNW 4 mph /  6.4 km/h 10 mph /  16.1 km/h 92 % 0 in /  0.0 mm
04:12 32.7 °F /  0.4 °C 30.9 °F /  -0.6 °C 30.1 in /  1018.8 hPa North 4 mph /  6.4 km/h 7 mph /  11.3 km/h 93 % 0 in /  0.0 mm
04:17 32.7 °F /  0.4 °C 30.9 °F /  -0.6 °C 30.1 in /  1018.8 hPa NNW 1 mph /  1.6 km/h 7 mph /  11.3 km/h 93 % 0 in /  0.0 mm
04:22 32.5 °F /  0.3 °C 30.7 °F /  -0.7 °C 30.1 in /  1018.8 hPa North 4 mph /  6.4 km/h 6 mph /  9.7 km/h 93 % 0 in /  0.0 mm
04:27 32.4 °F /  0.2 °C 30.6 °F /  -0.8 °C 30.1 in /  1018.8 hPa NNW 3 mph /  4.8 km/h 6 mph /  9.7 km/h 93 % 0 in /  0.0 mm
04:32 32.2 °F /  0.1 °C 30.4 °F /  -0.9 °C 30.1 in /  1018.8 hPa NNW 3 mph /  4.8 km/h 6 mph /  9.7 km/h 93 % 0 in /  0.0 mm
04:37 32.2 °F /  0.1 °C 30.4 °F /  -0.9 °C 30.1 in /  1018.8 hPa North 2 mph /  3.2 km/h 7 mph /  11.3 km/h 93 % 0 in /  0.0 mm
04:42 32 °F /  0.0 °C 30.2 °F /  -1.0 °C 30.1 in /  1018.8 hPa NNW 3 mph /  4.8 km/h 7 mph /  11.3 km/h 93 % 0 in /  0.0 mm
04:47 32 °F /  0.0 °C 30.2 °F /  -1.0 °C 30.1 in /  1018.8 hPa North 4 mph /  6.4 km/h 7 mph /  11.3 km/h 93 % 0 in /  0.0 mm
04:52 32 °F /  0.0 °C 30.2 °F /  -1.0 °C 30.1 in /  1018.8 hPa NNW 2 mph /  3.2 km/h 7 mph /  11.3 km/h 93 % 0 in /  0.0 mm
04:57 32 °F /  0.0 °C 30.2 °F /  -1.0 °C 30.1 in /  1018.8 hPa NNE 4 mph /  6.4 km/h 7 mph /  11.3 km/h 93 % 0 in /  0.0 mm
05:02 32 °F /  0.0 °C 30.2 °F /  -1.0 °C 30.1 in /  1018.8 hPa NNW 4 mph /  6.4 km/h 7 mph /  11.3 km/h 93 % 0 in /  0.0 mm
05:07 32.2 °F /  0.1 °C 30.4 °F /  -0.9 °C 30.1 in /  1018.8 hPa NNW 1 mph /  1.6 km/h 6 mph /  9.7 km/h 93 % 0 in /  0.0 mm
05:12 32.2 °F /  0.1 °C 30.4 °F /  -0.9 °C 30.1 in /  1018.8 hPa NNW 2 mph /  3.2 km/h 5 mph /  8.0 km/h 93 % 0 in /  0.0 mm
05:17 32 °F /  0.0 °C 30.2 °F /  -1.0 °C 30.1 in /  1018.8 hPa NNW 3 mph /  4.8 km/h 5 mph /  8.0 km/h 93 % 0 in /  0.0 mm
05:22 31.8 °F /  -0.1 °C 30 °F /  -1.1 °C 30.1 in /  1018.8 hPa NNE 2 mph /  3.2 km/h 6 mph /  9.7 km/h 93 % 0 in /  0.0 mm
05:32 31.8 °F /  -0.1 °C 30 °F /  -1.1 °C 30.1 in /  1018.8 hPa NNW 2 mph /  3.2 km/h 6 mph /  9.7 km/h 93 % 0 in /  0.0 mm
05:37 31.8 °F /  -0.1 °C 30 °F /  -1.1 °C 30.1 in /  1018.8 hPa NNW 3 mph /  4.8 km/h 6 mph /  9.7 km/h 93 % 0 in /  0.0 mm
05:47 32 °F /  0.0 °C 30.2 °F /  -1.0 °C 30.1 in /  1018.8 hPa NNW 2 mph /  3.2 km/h 6 mph /  9.7 km/h 93 % 0 in /  0.0 mm
05:52 32 °F /  0.0 °C 30.2 °F /  -1.0 °C 30.1 in /  1018.8 hPa WNW 3 mph /  4.8 km/h 6 mph /  9.7 km/h 93 % 0 in /  0.0 mm
05:57 31.8 °F /  -0.1 °C 30 °F /  -1.1 °C 30.1 in /  1018.8 hPa NW 2 mph /  3.2 km/h 6 mph /  9.7 km/h 93 % 0 in /  0.0 mm
06:02 31.8 °F /  -0.1 °C 30 °F /  -1.1 °C 30.1 in /  1018.8 hPa NNW 5 mph /  8.0 km/h 6 mph /  9.7 km/h 93 % 0 in /  0.0 mm
06:12 31.3 °F /  -0.4 °C 29.3 °F /  -1.5 °C 30.1 in /  1018.8 hPa North 3 mph /  4.8 km/h 8 mph /  12.9 km/h 92 % 0 in /  0.0 mm
06:17 30.9 °F /  -0.6 °C 28.9 °F /  -1.7 °C 30.1 in /  1018.8 hPa North 9 mph /  14.5 km/h 10 mph /  16.1 km/h 92 % 0 in /  0.0 mm
06:22 30.7 °F /  -0.7 °C 28.4 °F /  -2.0 °C 30.1 in /  1018.8 hPa NW 4 mph /  6.4 km/h 10 mph /  16.1 km/h 91 % 0 in /  0.0 mm
06:27 30.6 °F /  -0.8 °C 27.7 °F /  -2.4 °C 30.1 in /  1018.8 hPa North 8 mph /  12.9 km/h 10 mph /  16.1 km/h 89 % 0 in /  0.0 mm
06:32 30.6 °F /  -0.8 °C 27.7 °F /  -2.4 °C 30.1 in /  1018.8 hPa North 4 mph /  6.4 km/h 10 mph /  16.1 km/h 89 % 0 in /  0.0 mm
06:37 30.6 °F /  -0.8 °C 27.7 °F /  -2.4 °C 30.1 in /  1019.2 hPa NNW 4 mph /  6.4 km/h 10 mph /  16.1 km/h 89 % 0 in /  0.0 mm
06:42 30.4 °F /  -0.9 °C 27.3 °F /  -2.6 °C 30.1 in /  1018.8 hPa NNW 2 mph /  3.2 km/h 10 mph /  16.1 km/h 88 % 0 in /  0.0 mm
06:47 30.2 °F /  -1.0 °C 26.8 °F /  -2.9 °C 30.1 in /  1018.8 hPa NE 4 mph /  6.4 km/h 10 mph /  16.1 km/h 87 % 0 in /  0.0 mm
06:52 30.2 °F /  -1.0 °C 27.1 °F /  -2.7 °C 30.1 in /  1019.2 hPa NW 3 mph /  4.8 km/h 9 mph /  14.5 km/h 88 % 0 in /  0.0 mm
07:02 30 °F /  -1.1 °C 26.6 °F /  -3.0 °C 30.1 in /  1018.8 hPa North 4 mph /  6.4 km/h 9 mph /  14.5 km/h 87 % 0 in /  0.0 mm
07:07 29.8 °F /  -1.2 °C 26.4 °F /  -3.1 °C 30.1 in /  1018.8 hPa NNE 9 mph /  14.5 km/h 9 mph /  14.5 km/h 87 % 0 in /  0.0 mm
07:12 29.8 °F /  -1.2 °C 26.4 °F /  -3.1 °C 30.1 in /  1019.2 hPa NNW 4 mph /  6.4 km/h 9 mph /  14.5 km/h 87 % 0 in /  0.0 mm
07:17 29.8 °F /  -1.2 °C 26.4 °F /  -3.1 °C 30.1 in /  1019.2 hPa NNW 2 mph /  3.2 km/h 10 mph /  16.1 km/h 87 % 0 in /  0.0 mm
07:22 29.8 °F /  -1.2 °C 26.4 °F /  -3.1 °C 30.1 in /  1019.2 hPa North 5 mph /  8.0 km/h 10 mph /  16.1 km/h 87 % 0 in /  0.0 mm
07:27 29.8 °F /  -1.2 °C 26.4 °F /  -3.1 °C 30.1 in /  1018.8 hPa NW 4 mph /  6.4 km/h 10 mph /  16.1 km/h 87 % 0 in /  0.0 mm
07:32 29.7 °F /  -1.3 °C 26.2 °F /  -3.2 °C 30.1 in /  1018.8 hPa North 7 mph /  11.3 km/h 10 mph /  16.1 km/h 87 % 0 in /  0.0 mm
07:37 29.7 °F /  -1.3 °C 26.2 °F /  -3.2 °C 30.1 in /  1019.2 hPa NNE 4 mph /  6.4 km/h 10 mph /  16.1 km/h 87 % 0 in /  0.0 mm
07:42 29.7 °F /  -1.3 °C 26.6 °F /  -3.0 °C 30.1 in /  1019.2 hPa NNW 4 mph /  6.4 km/h 10 mph /  16.1 km/h 88 % 0 in /  0.0 mm
07:47 29.5 °F /  -1.4 °C 26.4 °F /  -3.1 °C 30.1 in /  1019.2 hPa North 3 mph /  4.8 km/h 11 mph /  17.7 km/h 88 % 0 in /  0.0 mm
07:52 29.5 °F /  -1.4 °C 26.4 °F /  -3.1 °C 30.1 in /  1019.2 hPa NW 4 mph /  6.4 km/h 11 mph /  17.7 km/h 88 % 0 in /  0.0 mm
07:57 29.5 °F /  -1.4 °C 26.4 °F /  -3.1 °C 30.1 in /  1019.2 hPa North 4 mph /  6.4 km/h 11 mph /  17.7 km/h 88 % 0 in /  0.0 mm
08:02 29.3 °F /  -1.5 °C 26.2 °F /  -3.2 °C 30.1 in /  1019.2 hPa NNW 4 mph /  6.4 km/h 10 mph /  16.1 km/h 88 % 0 in /  0.0 mm
08:07 29.3 °F /  -1.5 °C 26.2 °F /  -3.2 °C 30.1 in /  1019.2 hPa NNE 10 mph /  16.1 km/h 10 mph /  16.1 km/h 88 % 0 in /  0.0 mm
08:12 29.3 °F /  -1.5 °C 26.2 °F /  -3.2 °C 30.1 in /  1019.2 hPa NNE 5 mph /  8.0 km/h 9 mph /  14.5 km/h 88 % 0 in /  0.0 mm
08:17 29.1 °F /  -1.6 °C 26.1 °F /  -3.3 °C 30.1 in /  1019.5 hPa Calm   11 mph /  17.7 km/h 88 % 0 in /  0.0 mm
08:22 29.3 °F /  -1.5 °C 26.2 °F /  -3.2 °C 30.1 in /  1019.5 hPa North 1 mph /  1.6 km/h 11 mph /  17.7 km/h 88 % 0 in /  0.0 mm
08:32 29.3 °F /  -1.5 °C 26.2 °F /  -3.2 °C 30.1 in /  1019.5 hPa NNW 1 mph /  1.6 km/h 8 mph /  12.9 km/h 88 % 0 in /  0.0 mm
08:37 29.1 °F /  -1.6 °C 26.1 °F /  -3.3 °C 30.1 in /  1019.5 hPa North 2 mph /  3.2 km/h 7 mph /  11.3 km/h 88 % 0 in /  0.0 mm
08:42 29.1 °F /  -1.6 °C 26.1 °F /  -3.3 °C 30.1 in /  1019.5 hPa ENE 1 mph /  1.6 km/h 7 mph /  11.3 km/h 88 % 0 in /  0.0 mm
08:47 29.1 °F /  -1.6 °C 26.1 °F /  -3.3 °C 30.1 in /  1019.9 hPa NNW 5 mph /  8.0 km/h 8 mph /  12.9 km/h 88 % 0 in /  0.0 mm
08:52 29.1 °F /  -1.6 °C 26.1 °F /  -3.3 °C 30.1 in /  1019.5 hPa NNE 9 mph /  14.5 km/h 9 mph /  14.5 km/h 88 % 0 in /  0.0 mm
08:57 29.1 °F /  -1.6 °C 26.1 °F /  -3.3 °C 30.1 in /  1019.5 hPa NE 4 mph /  6.4 km/h 10 mph /  16.1 km/h 88 % 0 in /  0.0 mm
09:02 29.1 °F /  -1.6 °C 26.2 °F /  -3.2 °C 30.1 in /  1019.5 hPa NNE 6 mph /  9.7 km/h 12 mph /  19.3 km/h 89 % 0 in /  0.0 mm
09:07 29.1 °F /  -1.6 °C 26.2 °F /  -3.2 °C 30.1 in /  1019.5 hPa North 11 mph /  17.7 km/h 12 mph /  19.3 km/h 89 % 0 in /  0.0 mm
09:12 28.9 °F /  -1.7 °C 26.1 °F /  -3.3 °C 30.1 in /  1019.5 hPa NNW 5 mph /  8.0 km/h 11 mph /  17.7 km/h 89 % 0 in /  0.0 mm
09:17 28.9 °F /  -1.7 °C 26.1 °F /  -3.3 °C 30.1 in /  1019.5 hPa NNE 2 mph /  3.2 km/h 13 mph /  20.9 km/h 89 % 0 in /  0.0 mm
09:22 28.9 °F /  -1.7 °C 26.1 °F /  -3.3 °C 30.1 in /  1019.5 hPa ENE 2 mph /  3.2 km/h 13 mph /  20.9 km/h 89 % 0 in /  0.0 mm
09:27 28.9 °F /  -1.7 °C 26.4 °F /  -3.1 °C 30.1 in /  1019.5 hPa NNE 6 mph /  9.7 km/h 11 mph /  17.7 km/h 90 % 0 in /  0.0 mm
09:32 28.9 °F /  -1.7 °C 26.4 °F /  -3.1 °C 30.1 in /  1019.5 hPa NW 1 mph /  1.6 km/h 9 mph /  14.5 km/h 90 % 0 in /  0.0 mm
09:42 28.8 °F /  -1.8 °C 26.2 °F /  -3.2 °C 30.1 in /  1019.5 hPa North 4 mph /  6.4 km/h 9 mph /  14.5 km/h 90 % 0 in /  0.0 mm
09:47 28.8 °F /  -1.8 °C 26.2 °F /  -3.2 °C 30.1 in /  1019.5 hPa NNE 7 mph /  11.3 km/h 9 mph /  14.5 km/h 90 % 0 in /  0.0 mm
09:52 28.9 °F /  -1.7 °C 26.4 °F /  -3.1 °C 30.1 in /  1019.5 hPa NE 2 mph /  3.2 km/h 11 mph /  17.7 km/h 90 % 0 in /  0.0 mm
09:57 28.9 °F /  -1.7 °C 26.4 °F /  -3.1 °C 30.1 in /  1019.5 hPa NNE 2 mph /  3.2 km/h 11 mph /  17.7 km/h 90 % 0 in /  0.0 mm
10:02 28.9 °F /  -1.7 °C 26.4 °F /  -3.1 °C 30.1 in /  1019.5 hPa NNW 4 mph /  6.4 km/h 11 mph /  17.7 km/h 90 % 0 in /  0.0 mm
10:07 29.1 °F /  -1.6 °C 26.2 °F /  -3.2 °C 30.1 in /  1019.5 hPa NE 10 mph /  16.1 km/h 10 mph /  16.1 km/h 89 % 0 in /  0.0 mm
10:12 29.1 °F /  -1.6 °C 26.2 °F /  -3.2 °C 30.1 in /  1019.5 hPa North 5 mph /  8.0 km/h 9 mph /  14.5 km/h 89 % 0 in /  0.0 mm
10:17 29.1 °F /  -1.6 °C 26.2 °F /  -3.2 °C 30.1 in /  1019.9 hPa North 2 mph /  3.2 km/h 10 mph /  16.1 km/h 89 % 0 in /  0.0 mm
10:22 29.3 °F /  -1.5 °C 26.2 °F /  -3.2 °C 30.1 in /  1019.9 hPa NW 1 mph /  1.6 km/h 10 mph /  16.1 km/h 88 % 0 in /  0.0 mm
10:27 29.5 °F /  -1.4 °C 26.6 °F /  -3.0 °C 30.1 in /  1019.9 hPa NW 1 mph /  1.6 km/h 9 mph /  14.5 km/h 89 % 0 in /  0.0 mm
10:32 29.5 °F /  -1.4 °C 26.4 °F /  -3.1 °C 30.1 in /  1019.9 hPa NW 1 mph /  1.6 km/h 5 mph /  8.0 km/h 88 % 0 in /  0.0 mm
10:42 29.7 °F /  -1.3 °C 26.2 °F /  -3.2 °C 30.1 in /  1020.2 hPa North 1 mph /  1.6 km/h 5 mph /  8.0 km/h 87 % 0 in /  0.0 mm
10:47 29.8 °F /  -1.2 °C 26.4 °F /  -3.1 °C 30.1 in /  1019.9 hPa North 1 mph /  1.6 km/h 5 mph /  8.0 km/h 87 % 0 in /  0.0 mm
10:52 30 °F /  -1.1 °C 26.4 °F /  -3.1 °C 30.1 in /  1020.2 hPa North 1 mph /  1.6 km/h 5 mph /  8.0 km/h 86 % 0 in /  0.0 mm
10:57 30 °F /  -1.1 °C 26.6 °F /  -3.0 °C 30.1 in /  1019.9 hPa Calm   3 mph /  4.8 km/h 87 % 0 in /  0.0 mm
11:02 30.2 °F /  -1.0 °C 26.8 °F /  -2.9 °C 30.1 in /  1019.9 hPa WNW 1 mph /  1.6 km/h 3 mph /  4.8 km/h 87 % 0 in /  0.0 mm
11:12 30.4 °F /  -0.9 °C 26.8 °F /  -2.9 °C 30.1 in /  1020.2 hPa Calm   4 mph /  6.4 km/h 86 % 0 in /  0.0 mm
11:17 30.4 °F /  -0.9 °C 26.4 °F /  -3.1 °C 30.1 in /  1019.9 hPa NNW 3 mph /  4.8 km/h 5 mph /  8.0 km/h 85 % 0 in /  0.0 mm
11:22 30.4 °F /  -0.9 °C 26.4 °F /  -3.1 °C 30.1 in /  1019.9 hPa NNW 3 mph /  4.8 km/h 6 mph /  9.7 km/h 85 % 0 in /  0.0 mm
11:27 30.7 °F /  -0.7 °C 27.1 °F /  -2.7 °C 30.1 in /  1019.9 hPa NNW 2 mph /  3.2 km/h 6 mph /  9.7 km/h 86 % 0 in /  0.0 mm
11:32 30.7 °F /  -0.7 °C 26.8 °F /  -2.9 °C 30.1 in /  1019.9 hPa NNW 4 mph /  6.4 km/h 6 mph /  9.7 km/h 85 % 0 in /  0.0 mm
11:37 30.9 °F /  -0.6 °C 27.1 °F /  -2.7 °C 30.1 in /  1019.9 hPa NNW 1 mph /  1.6 km/h 6 mph /  9.7 km/h 86 % 0 in /  0.0 mm
11:42 31.1 °F /  -0.5 °C 27.1 °F /  -2.7 °C 30.1 in /  1019.9 hPa WNW 2 mph /  3.2 km/h 6 mph /  9.7 km/h 85 % 0 in /  0.0 mm
11:47 30.9 °F /  -0.6 °C 26.6 °F /  -3.0 °C 30.1 in /  1019.9 hPa NW 1 mph /  1.6 km/h 6 mph /  9.7 km/h 84 % 0 in /  0.0 mm
11:52 30.9 °F /  -0.6 °C 27 °F /  -2.8 °C 30.1 in /  1019.5 hPa North 3 mph /  4.8 km/h 5 mph /  8.0 km/h 85 % 0 in /  0.0 mm
11:57 31.1 °F /  -0.5 °C 26.8 °F /  -2.9 °C 30.1 in /  1019.9 hPa North 1 mph /  1.6 km/h 5 mph /  8.0 km/h 84 % 0 in /  0.0 mm
12:02 31.5 °F /  -0.3 °C 27.1 °F /  -2.7 °C 30.1 in /  1019.9 hPa NNW 4 mph /  6.4 km/h 5 mph /  8.0 km/h 84 % 0 in /  0.0 mm
12:12 31.5 °F /  -0.3 °C 27 °F /  -2.8 °C 30.1 in /  1019.9 hPa NE 2 mph /  3.2 km/h 6 mph /  9.7 km/h 83 % 0 in /  0.0 mm
12:17 31.6 °F /  -0.2 °C 27.3 °F /  -2.6 °C 30.1 in /  1019.5 hPa WNW 3 mph /  4.8 km/h 6 mph /  9.7 km/h 84 % 0 in /  0.0 mm
12:22 31.6 °F /  -0.2 °C 27.3 °F /  -2.6 °C 30.1 in /  1019.5 hPa NNW 1 mph /  1.6 km/h 7 mph /  11.3 km/h 84 % 0 in /  0.0 mm
12:27 31.6 °F /  -0.2 °C 27.3 °F /  -2.6 °C 30.1 in /  1019.5 hPa NE 2 mph /  3.2 km/h 7 mph /  11.3 km/h 84 % 0 in /  0.0 mm
12:32 31.6 °F /  -0.2 °C 27.1 °F /  -2.7 °C 30.1 in /  1019.5 hPa West 1 mph /  1.6 km/h 4 mph /  6.4 km/h 83 % 0 in /  0.0 mm
12:37 31.6 °F /  -0.2 °C 27.1 °F /  -2.7 °C 30.1 in /  1019.5 hPa Calm   3 mph /  4.8 km/h 83 % 0 in /  0.0 mm
12:42 31.8 °F /  -0.1 °C 27 °F /  -2.8 °C 30.1 in /  1019.5 hPa Calm   3 mph /  4.8 km/h 82 % 0 in /  0.0 mm
12:52 32.4 °F /  0.2 °C 27.9 °F /  -2.3 °C 30.1 in /  1019.9 hPa ENE 2 mph /  3.2 km/h 2 mph /  3.2 km/h 83 % 0 in /  0.0 mm
12:57 32.5 °F /  0.3 °C 27.3 °F /  -2.6 °C 30.1 in /  1019.5 hPa East 1 mph /  1.6 km/h 3 mph /  4.8 km/h 81 % 0 in /  0.0 mm
13:02 32.7 °F /  0.4 °C 27.9 °F /  -2.3 °C 30.1 in /  1019.5 hPa Calm   3 mph /  4.8 km/h 82 % 0 in /  0.0 mm
13:12 33.3 °F /  0.7 °C 27.7 °F /  -2.4 °C 30.1 in /  1019.5 hPa Calm   3 mph /  4.8 km/h 80 % 0 in /  0.0 mm
13:17 33.1 °F /  0.6 °C 27.9 °F /  -2.3 °C 30.1 in /  1019.5 hPa Calm   3 mph /  4.8 km/h 81 % 0 in /  0.0 mm
13:22 33.3 °F /  0.7 °C 28 °F /  -2.2 °C 30.1 in /  1019.5 hPa Calm   3 mph /  4.8 km/h 81 % 0 in /  0.0 mm
13:27 33.1 °F /  0.6 °C 27.5 °F /  -2.5 °C 30.1 in /  1019.5 hPa ENE 1 mph /  1.6 km/h 3 mph /  4.8 km/h 80 % 0 in /  0.0 mm
13:37 33.4 °F /  0.8 °C 27.9 °F /  -2.3 °C 30.1 in /  1019.2 hPa Calm   2 mph /  3.2 km/h 80 % 0 in /  0.0 mm
13:42 33.6 °F /  0.9 °C 28.8 °F /  -1.8 °C 30.1 in /  1019.2 hPa ESE 1 mph /  1.6 km/h 2 mph /  3.2 km/h 82 % 0 in /  0.0 mm
13:47 34 °F /  1.1 °C 28.4 °F /  -2.0 °C 30.1 in /  1019.2 hPa Calm   1 mph /  1.6 km/h 80 % 0 in /  0.0 mm
13:52 34.3 °F /  1.3 °C 28.8 °F /  -1.8 °C 30.1 in /  1019.2 hPa Calm   1 mph /  1.6 km/h 80 % 0 in /  0.0 mm
13:57 34.9 °F /  1.6 °C 29.3 °F /  -1.5 °C 30.1 in /  1019.2 hPa Calm   1 mph /  1.6 km/h 80 % 0 in /  0.0 mm
14:02 35.1 °F /  1.7 °C 29.5 °F /  -1.4 °C 30.1 in /  1018.8 hPa NNE 2 mph /  3.2 km/h 2 mph /  3.2 km/h 80 % 0 in /  0.0 mm
14:12 35.2 °F /  1.8 °C 29.3 °F /  -1.5 °C 30.1 in /  1018.8 hPa ENE 2 mph /  3.2 km/h 4 mph /  6.4 km/h 79 % 0 in /  0.0 mm
14:22 35.1 °F /  1.7 °C 28.9 °F /  -1.7 °C 30.1 in /  1018.8 hPa Calm   2 mph /  3.2 km/h 78 % 0 in /  0.0 mm
14:27 35.1 °F /  1.7 °C 29.1 °F /  -1.6 °C 30.1 in /  1018.8 hPa Calm   2 mph /  3.2 km/h 79 % 0 in /  0.0 mm
14:32 35.1 °F /  1.7 °C 28.9 °F /  -1.7 °C 30.1 in /  1018.8 hPa Calm   2 mph /  3.2 km/h 78 % 0 in /  0.0 mm
14:42 35.4 °F /  1.9 °C 29.3 °F /  -1.5 °C 30.1 in /  1018.8 hPa Calm   3 mph /  4.8 km/h 78 % 0 in /  0.0 mm
14:52 35.6 °F /  2.0 °C 29.5 °F /  -1.4 °C 30.1 in /  1018.5 hPa Calm   3 mph /  4.8 km/h 78 % 0 in /  0.0 mm
14:57 36 °F /  2.2 °C 29.5 °F /  -1.4 °C 30.1 in /  1018.8 hPa Calm   2 mph /  3.2 km/h 77 % 0 in /  0.0 mm
15:02 36.1 °F /  2.3 °C 29.7 °F /  -1.3 °C 30.1 in /  1018.8 hPa Calm   2 mph /  3.2 km/h 77 % 0 in /  0.0 mm
15:07 36 °F /  2.2 °C 29.5 °F /  -1.4 °C 30.1 in /  1018.8 hPa SW 2 mph /  3.2 km/h 3 mph /  4.8 km/h 77 % 0 in /  0.0 mm
15:12 36.1 °F /  2.3 °C 29.7 °F /  -1.3 °C 30.1 in /  1018.8 hPa Calm   3 mph /  4.8 km/h 77 % 0 in /  0.0 mm
15:17 36.1 °F /  2.3 °C 29.3 °F /  -1.5 °C 30.1 in /  1018.5 hPa Calm   3 mph /  4.8 km/h 76 % 0 in /  0.0 mm
15:22 36.1 °F /  2.3 °C 29.7 °F /  -1.3 °C 30.1 in /  1018.5 hPa Calm   2 mph /  3.2 km/h 77 % 0 in /  0.0 mm
15:27 36.1 °F /  2.3 °C 29.7 °F /  -1.3 °C 30.1 in /  1018.5 hPa Calm   2 mph /  3.2 km/h 77 % 0 in /  0.0 mm
15:32 36.5 °F /  2.5 °C 30 °F /  -1.1 °C 30.1 in /  1018.5 hPa South 1 mph /  1.6 km/h 3 mph /  4.8 km/h 77 % 0 in /  0.0 mm
15:37 36.9 °F /  2.7 °C 30 °F /  -1.1 °C 30.1 in /  1018.2 hPa Calm   3 mph /  4.8 km/h 76 % 0 in /  0.0 mm
15:42 36.9 °F /  2.7 °C 30.4 °F /  -0.9 °C 30.1 in /  1018.5 hPa SSE 2 mph /  3.2 km/h 3 mph /  4.8 km/h 77 % 0 in /  0.0 mm
15:47 37 °F /  2.8 °C 29.8 °F /  -1.2 °C 30.1 in /  1018.5 hPa Calm   3 mph /  4.8 km/h 75 % 0 in /  0.0 mm
15:57 37 °F /  2.8 °C 29.8 °F /  -1.2 °C 30.1 in /  1018.2 hPa Calm   3 mph /  4.8 km/h 75 % 0 in /  0.0 mm
16:02 37 °F /  2.8 °C 30.2 °F /  -1.0 °C 30.1 in /  1018.5 hPa Calm   3 mph /  4.8 km/h 76 % 0 in /  0.0 mm
16:07 37 °F /  2.8 °C 29.8 °F /  -1.2 °C 30.1 in /  1018.5 hPa Calm   3 mph /  4.8 km/h 75 % 0 in /  0.0 mm
16:12 36.7 °F /  2.6 °C 29.5 °F /  -1.4 °C 30.1 in /  1018.5 hPa Calm   1 mph /  1.6 km/h 75 % 0 in /  0.0 mm
16:17 36.9 °F /  2.7 °C 30 °F /  -1.1 °C 30.1 in /  1018.2 hPa Calm   1 mph /  1.6 km/h 76 % 0 in /  0.0 mm
16:22 37 °F /  2.8 °C 29.8 °F /  -1.2 °C 30.1 in /  1018.2 hPa WSW 1 mph /  1.6 km/h 1 mph /  1.6 km/h 75 % 0 in /  0.0 mm
16:32 36.7 °F /  2.6 °C 29.8 °F /  -1.2 °C 30.1 in /  1018.2 hPa Calm   3 mph /  4.8 km/h 76 % 0 in /  0.0 mm
16:37 36.7 °F /  2.6 °C 29.5 °F /  -1.4 °C 30.1 in /  1018.2 hPa North 1 mph /  1.6 km/h 3 mph /  4.8 km/h 75 % 0 in /  0.0 mm
16:42 36.7 °F /  2.6 °C 29.5 °F /  -1.4 °C 30.1 in /  1018.5 hPa Calm   2 mph /  3.2 km/h 75 % 0 in /  0.0 mm
16:47 36.5 °F /  2.5 °C 29.3 °F /  -1.5 °C 30.1 in /  1018.5 hPa NE 1 mph /  1.6 km/h 2 mph /  3.2 km/h 75 % 0 in /  0.0 mm
16:52 36.3 °F /  2.4 °C 29.1 °F /  -1.6 °C 30.1 in /  1018.2 hPa Calm   2 mph /  3.2 km/h 75 % 0 in /  0.0 mm
16:57 36.3 °F /  2.4 °C 29.1 °F /  -1.6 °C 30.1 in /  1018.2 hPa Calm   2 mph /  3.2 km/h 75 % 0 in /  0.0 mm
17:02 36.3 °F /  2.4 °C 29.5 °F /  -1.4 °C 30.1 in /  1018.5 hPa North 2 mph /  3.2 km/h 2 mph /  3.2 km/h 76 % 0 in /  0.0 mm
17:07 36.3 °F /  2.4 °C 28.8 °F /  -1.8 °C 30.1 in /  1018.5 hPa NNE 2 mph /  3.2 km/h 3 mph /  4.8 km/h 74 % 0 in /  0.0 mm
17:12 36.3 °F /  2.4 °C 28.8 °F /  -1.8 °C 30.1 in /  1018.5 hPa ENE 3 mph /  4.8 km/h 6 mph /  9.7 km/h 74 % 0 in /  0.0 mm
17:17 36.3 °F /  2.4 °C 29.1 °F /  -1.6 °C 30.1 in /  1018.5 hPa NNE 2 mph /  3.2 km/h 6 mph /  9.7 km/h 75 % 0 in /  0.0 mm
17:22 36.1 °F /  2.3 °C 28.9 °F /  -1.7 °C 30.1 in /  1018.5 hPa NNW 2 mph /  3.2 km/h 6 mph /  9.7 km/h 75 % 0 in /  0.0 mm
17:27 36 °F /  2.2 °C 29.1 °F /  -1.6 °C 30.1 in /  1018.5 hPa NNW 1 mph /  1.6 km/h 5 mph /  8.0 km/h 76 % 0 in /  0.0 mm
17:32 35.6 °F /  2.0 °C 28.8 °F /  -1.8 °C 30.1 in /  1018.5 hPa Calm   5 mph /  8.0 km/h 76 % 0 in /  0.0 mm
17:42 35.1 °F /  1.7 °C 28.2 °F /  -2.1 °C 30.1 in /  1018.5 hPa NNW 2 mph /  3.2 km/h 3 mph /  4.8 km/h 76 % 0 in /  0.0 mm
17:47 34.9 °F /  1.6 °C 28.8 °F /  -1.8 °C 30.1 in /  1018.5 hPa NNE 2 mph /  3.2 km/h 5 mph /  8.0 km/h 78 % 0 in /  0.0 mm
17:57 34.3 °F /  1.3 °C 29.1 °F /  -1.6 °C 30.1 in /  1018.5 hPa North 1 mph /  1.6 km/h 5 mph /  8.0 km/h 81 % 0 in /  0.0 mm
18:07 34 °F /  1.1 °C 28.8 °F /  -1.8 °C 30.1 in /  1018.5 hPa NE 2 mph /  3.2 km/h 8 mph /  12.9 km/h 81 % 0 in /  0.0 mm
18:12 33.4 °F /  0.8 °C 28.6 °F /  -1.9 °C 30.1 in /  1018.5 hPa NNE 5 mph /  8.0 km/h 8 mph /  12.9 km/h 82 % 0 in /  0.0 mm
18:17 33.1 °F /  0.6 °C 28.8 °F /  -1.8 °C 30.1 in /  1018.5 hPa North 3 mph /  4.8 km/h 8 mph /  12.9 km/h 84 % 0 in /  0.0 mm
18:22 32.7 °F /  0.4 °C 28.8 °F /  -1.8 °C 30.1 in /  1018.8 hPa NNE 1 mph /  1.6 km/h 10 mph /  16.1 km/h 85 % 0 in /  0.0 mm
18:32 32.4 °F /  0.2 °C 28 °F /  -2.2 °C 30.1 in /  1018.5 hPa NNW 3 mph /  4.8 km/h 9 mph /  14.5 km/h 84 % 0 in /  0.0 mm
18:37 32.2 °F /  0.1 °C 28.2 °F /  -2.1 °C 30.1 in /  1018.5 hPa North 3 mph /  4.8 km/h 6 mph /  9.7 km/h 85 % 0 in /  0.0 mm
18:42 31.8 °F /  -0.1 °C 27.9 °F /  -2.3 °C 30.1 in /  1018.5 hPa NNW 3 mph /  4.8 km/h 5 mph /  8.0 km/h 85 % 0 in /  0.0 mm
18:47 31.8 °F /  -0.1 °C 27.9 °F /  -2.3 °C 30.1 in /  1018.8 hPa WNW 1 mph /  1.6 km/h 6 mph /  9.7 km/h 85 % 0 in /  0.0 mm
18:52 31.6 °F /  -0.2 °C 27.7 °F /  -2.4 °C 30.1 in /  1018.8 hPa NE 1 mph /  1.6 km/h 6 mph /  9.7 km/h 85 % 0 in /  0.0 mm
19:02 31.5 °F /  -0.3 °C 27.1 °F /  -2.7 °C 30.1 in /  1018.5 hPa NNW 1 mph /  1.6 km/h 6 mph /  9.7 km/h 84 % 0 in /  0.0 mm
19:12 31.3 °F /  -0.4 °C 27.3 °F /  -2.6 °C 30.1 in /  1018.5 hPa Calm   6 mph /  9.7 km/h 85 % 0 in /  0.0 mm
19:17 30.9 °F /  -0.6 °C 27 °F /  -2.8 °C 30.1 in /  1018.5 hPa NE 3 mph /  4.8 km/h 4 mph /  6.4 km/h 85 % 0 in /  0.0 mm
19:22 30.9 °F /  -0.6 °C 27.1 °F /  -2.7 °C 30.1 in /  1018.5 hPa NNE 3 mph /  4.8 km/h 5 mph /  8.0 km/h 86 % 0 in /  0.0 mm
19:27 30.9 °F /  -0.6 °C 27.1 °F /  -2.7 °C 30.1 in /  1018.5 hPa NNE 3 mph /  4.8 km/h 5 mph /  8.0 km/h 86 % 0 in /  0.0 mm
19:32 30.9 °F /  -0.6 °C 27.1 °F /  -2.7 °C 30.1 in /  1018.5 hPa Calm   5 mph /  8.0 km/h 86 % 0 in /  0.0 mm
19:37 30.9 °F /  -0.6 °C 27.1 °F /  -2.7 °C 30.1 in /  1018.5 hPa Calm   5 mph /  8.0 km/h 86 % 0 in /  0.0 mm
19:42 30.9 °F /  -0.6 °C 27.1 °F /  -2.7 °C 30.1 in /  1018.8 hPa Calm   5 mph /  8.0 km/h 86 % 0 in /  0.0 mm
19:47 30.9 °F /  -0.6 °C 27.1 °F /  -2.7 °C 30.1 in /  1018.8 hPa Calm   2 mph /  3.2 km/h 86 % 0 in /  0.0 mm
19:52 30.9 °F /  -0.6 °C 27.1 °F /  -2.7 °C 30.1 in /  1018.8 hPa Calm   1 mph /  1.6 km/h 86 % 0 in /  0.0 mm
19:57 31.1 °F /  -0.5 °C 27.3 °F /  -2.6 °C 30.1 in /  1018.8 hPa NE 2 mph /  3.2 km/h 2 mph /  3.2 km/h 86 % 0 in /  0.0 mm
20:02 31.3 °F /  -0.4 °C 27.3 °F /  -2.6 °C 30.1 in /  1018.5 hPa NNW 2 mph /  3.2 km/h 3 mph /  4.8 km/h 85 % 0 in /  0.0 mm
20:12 31.5 °F /  -0.3 °C 27.5 °F /  -2.5 °C 30.1 in /  1018.8 hPa Calm   4 mph /  6.4 km/h 85 % 0 in /  0.0 mm
20:17 31.6 °F /  -0.2 °C 27.3 °F /  -2.6 °C 30.1 in /  1018.5 hPa NNW 1 mph /  1.6 km/h 4 mph /  6.4 km/h 84 % 0 in /  0.0 mm
20:22 31.5 °F /  -0.3 °C 27.1 °F /  -2.7 °C 30.1 in /  1018.8 hPa North 2 mph /  3.2 km/h 4 mph /  6.4 km/h 84 % 0 in /  0.0 mm
20:27 31.5 °F /  -0.3 °C 27.5 °F /  -2.5 °C 30.1 in /  1018.8 hPa NNW 1 mph /  1.6 km/h 4 mph /  6.4 km/h 85 % 0 in /  0.0 mm
20:32 31.6 °F /  -0.2 °C 27.3 °F /  -2.6 °C 30.1 in /  1018.8 hPa Calm   4 mph /  6.4 km/h 84 % 0 in /  0.0 mm
20:37 31.6 °F /  -0.2 °C 27.7 °F /  -2.4 °C 30.1 in /  1018.8 hPa NE 1 mph /  1.6 km/h 4 mph /  6.4 km/h 85 % 0 in /  0.0 mm
20:42 31.6 °F /  -0.2 °C 27.7 °F /  -2.4 °C 30.1 in /  1018.8 hPa North 1 mph /  1.6 km/h 4 mph /  6.4 km/h 85 % 0 in /  0.0 mm
20:52 31.6 °F /  -0.2 °C 27.7 °F /  -2.4 °C 30.1 in /  1018.8 hPa Calm   3 mph /  4.8 km/h 85 % 0 in /  0.0 mm
20:57 31.6 °F /  -0.2 °C 27.7 °F /  -2.4 °C 30.1 in /  1018.8 hPa Calm   3 mph /  4.8 km/h 85 % 0 in /  0.0 mm
21:02 31.6 °F /  -0.2 °C 27.7 °F /  -2.4 °C 30.1 in /  1018.8 hPa NNE 1 mph /  1.6 km/h 3 mph /  4.8 km/h 85 % 0 in /  0.0 mm
21:12 31.8 °F /  -0.1 °C 28 °F /  -2.2 °C 30.1 in /  1018.8 hPa Calm   2 mph /  3.2 km/h 86 % 0 in /  0.0 mm
21:17 31.8 °F /  -0.1 °C 27.9 °F /  -2.3 °C 30.1 in /  1018.8 hPa NNE 2 mph /  3.2 km/h 2 mph /  3.2 km/h 85 % 0 in /  0.0 mm
21:22 32 °F /  0.0 °C 27.7 °F /  -2.4 °C 30.1 in /  1018.8 hPa Calm   3 mph /  4.8 km/h 84 % 0 in /  0.0 mm
21:32 32.2 °F /  0.1 °C 27.9 °F /  -2.3 °C 30.1 in /  1018.8 hPa NE 2 mph /  3.2 km/h 5 mph /  8.0 km/h 84 % 0 in /  0.0 mm
21:42 32.4 °F /  0.2 °C 27.9 °F /  -2.3 °C 30.1 in /  1018.8 hPa NNE 4 mph /  6.4 km/h 7 mph /  11.3 km/h 83 % 0 in /  0.0 mm
21:47 32.4 °F /  0.2 °C 27.5 °F /  -2.5 °C 30.1 in /  1018.8 hPa NE 3 mph /  4.8 km/h 7 mph /  11.3 km/h 82 % 0 in /  0.0 mm
21:52 32.4 °F /  0.2 °C 27.9 °F /  -2.3 °C 30.1 in /  1018.8 hPa Calm   7 mph /  11.3 km/h 83 % 0 in /  0.0 mm
21:57 32.4 °F /  0.2 °C 27.9 °F /  -2.3 °C 30.1 in /  1018.8 hPa NNE 3 mph /  4.8 km/h 7 mph /  11.3 km/h 83 % 0 in /  0.0 mm
22:02 32.4 °F /  0.2 °C 27.9 °F /  -2.3 °C 30.1 in /  1018.8 hPa NNE 3 mph /  4.8 km/h 7 mph /  11.3 km/h 83 % 0 in /  0.0 mm
22:07 32.2 °F /  0.1 °C 27.9 °F /  -2.3 °C 30.1 in /  1018.8 hPa NNE 1 mph /  1.6 km/h 7 mph /  11.3 km/h 84 % 0 in /  0.0 mm
22:12 32.2 °F /  0.1 °C 27.7 °F /  -2.4 °C 30.1 in /  1018.8 hPa NNE 3 mph /  4.8 km/h 6 mph /  9.7 km/h 83 % 0 in /  0.0 mm
22:17 32.2 °F /  0.1 °C 27.7 °F /  -2.4 °C 30.1 in /  1018.8 hPa NNE 4 mph /  6.4 km/h 7 mph /  11.3 km/h 83 % 0 in /  0.0 mm
22:22 32.2 °F /  0.1 °C 27.9 °F /  -2.3 °C 30.1 in /  1018.8 hPa Calm   7 mph /  11.3 km/h 84 % 0 in /  0.0 mm
22:27 32.2 °F /  0.1 °C 27.9 °F /  -2.3 °C 30.1 in /  1018.8 hPa NNE 2 mph /  3.2 km/h 7 mph /  11.3 km/h 84 % 0 in /  0.0 mm
22:32 32.2 °F /  0.1 °C 27.9 °F /  -2.3 °C 30.1 in /  1018.8 hPa NNE 3 mph /  4.8 km/h 7 mph /  11.3 km/h 84 % 0 in /  0.0 mm
22:37 32.2 °F /  0.1 °C 27.9 °F /  -2.3 °C 30.1 in /  1018.8 hPa NE 5 mph /  8.0 km/h 6 mph /  9.7 km/h 84 % 0 in /  0.0 mm
22:42 32.2 °F /  0.1 °C 27.9 °F /  -2.3 °C 30.1 in /  1018.5 hPa NNE 5 mph /  8.0 km/h 6 mph /  9.7 km/h 84 % 0 in /  0.0 mm
22:52 32.2 °F /  0.1 °C 27.9 °F /  -2.3 °C 30.1 in /  1018.5 hPa NE 2 mph /  3.2 km/h 9 mph /  14.5 km/h 84 % 0 in /  0.0 mm
22:57 32.2 °F /  0.1 °C 28.2 °F /  -2.1 °C 30.1 in /  1018.5 hPa NE 5 mph /  8.0 km/h 9 mph /  14.5 km/h 85 % 0 in /  0.0 mm
23:02 32.2 °F /  0.1 °C 27.9 °F /  -2.3 °C 30.1 in /  1018.5 hPa NE 4 mph /  6.4 km/h 8 mph /  12.9 km/h 84 % 0 in /  0.0 mm
23:07 32.2 °F /  0.1 °C 27.9 °F /  -2.3 °C 30.1 in /  1018.5 hPa NE 4 mph /  6.4 km/h 8 mph /  12.9 km/h 84 % 0 in /  0.0 mm
23:12 32.2 °F /  0.1 °C 28.2 °F /  -2.1 °C 30.1 in /  1018.5 hPa ENE 4 mph /  6.4 km/h 8 mph /  12.9 km/h 85 % 0 in /  0.0 mm
23:17 32.2 °F /  0.1 °C 27.9 °F /  -2.3 °C 30.1 in /  1018.5 hPa NNE 5 mph /  8.0 km/h 8 mph /  12.9 km/h 84 % 0 in /  0.0 mm
23:22 32.2 °F /  0.1 °C 27.9 °F /  -2.3 °C 30.1 in /  1018.5 hPa NE 4 mph /  6.4 km/h 7 mph /  11.3 km/h 84 % 0 in /  0.0 mm
23:27 32.4 °F /  0.2 °C 28 °F /  -2.2 °C 30.1 in /  1018.5 hPa NE 5 mph /  8.0 km/h 7 mph /  11.3 km/h 84 % 0 in /  0.0 mm
23:32 32.4 °F /  0.2 °C 28 °F /  -2.2 °C 30.1 in /  1018.5 hPa NE 6 mph /  9.7 km/h 7 mph /  11.3 km/h 84 % 0 in /  0.0 mm
23:37 32.2 °F /  0.1 °C 28.2 °F /  -2.1 °C 30.1 in /  1018.5 hPa NNE 3 mph /  4.8 km/h 6 mph /  9.7 km/h 85 % 0 in /  0.0 mm
23:42 32.4 °F /  0.2 °C 28 °F /  -2.2 °C 30.1 in /  1018.5 hPa NNW 3 mph /  4.8 km/h 6 mph /  9.7 km/h 84 % 0 in /  0.0 mm
23:47 32.4 °F /  0.2 °C 28 °F /  -2.2 °C 30.1 in /  1018.5 hPa NNE 5 mph /  8.0 km/h 8 mph /  12.9 km/h 84 % 0 in /  0.0 mm
23:52 32.2 °F /  0.1 °C 27.9 °F /  -2.3 °C 30.1 in /  1018.2 hPa NE 4 mph /  6.4 km/h 9 mph /  14.5 km/h 84 % 0 in /  0.0 mm
23:57 32.2 °F /  0.1 °C 28.2 °F /  -2.1 °C 30.1 in /  1018.2 hPa North 3 mph /  4.8 km/h 9 mph /  14.5 km/h 85 % 0 in /  0.0 mm
Meteo18
Compliments of Weather Underground - 4 mb

Script developed by  Jim McMurry - jmcmurry@mwt.net Adapted for the template by  Wim van der Kuil - Leuven-Template.eu

You find our weather info also at:

European Weather Network

Weather Underground

Equipment we use:

Weather-station
Davis Vue

Weather-program
Meteohub

Weather-server
Raspberry PI 2 B+

Provider
1 and 1

Davis Vue

Meteohub

Raspberry PI 2 B+

1 and 1